createdAt,value
2023-03-17T00:01:20.820Z,98432.03
2023-03-17T00:03:49.893Z,98419.78
2023-03-17T00:06:29.319Z,98425.06
2023-03-17T00:08:57.360Z,98424.19
2023-03-17T00:11:25.343Z,98423.31
2023-03-17T00:13:52.875Z,98422.53
2023-03-17T00:16:27.058Z,98428.69
2023-03-17T00:18:55.376Z,98433.06
2023-03-17T00:21:28.672Z,98440.91
2023-03-17T00:23:59.550Z,98433.00
2023-03-17T00:26:27.063Z,98440.06
2023-03-17T00:28:54.766Z,98429.53
2023-03-17T00:31:24.546Z,98431.31
2023-03-17T00:33:53.960Z,98430.38
2023-03-17T00:36:27.966Z,98421.63
2023-03-17T00:38:54.510Z,98423.38
2023-03-17T00:41:21.073Z,98424.25
2023-03-17T00:43:47.633Z,98419.00
2023-03-17T00:46:23.441Z,98415.47
2023-03-17T00:48:52.844Z,98408.38
2023-03-17T00:51:19.320Z,98407.50
2023-03-17T00:53:45.870Z,98404.88
2023-03-17T00:56:18.279Z,98414.47
2023-03-17T00:58:45.707Z,98404.94
2023-03-17T01:01:12.557Z,98404.09
2023-03-17T01:03:39.674Z,98402.31
2023-03-17T01:06:11.013Z,98397.84
2023-03-17T01:08:39.198Z,98386.41
2023-03-17T01:11:06.678Z,98380.31
2023-03-17T01:13:34.223Z,98383.88
2023-03-17T01:16:01.269Z,98380.41
2023-03-17T01:18:27.826Z,98370.72
2023-03-17T01:20:54.644Z,98383.88
2023-03-17T01:23:22.163Z,98378.66
2023-03-17T01:25:49.147Z,98372.56
2023-03-17T01:28:20.523Z,98355.88
2023-03-17T01:30:47.507Z,98367.25
2023-03-17T01:33:14.807Z,98362.88
2023-03-17T01:35:43.912Z,98355.00
2023-03-17T01:38:10.604Z,98349.75
2023-03-17T01:40:51.840Z,98345.38
2023-03-17T01:43:23.228Z,98351.53
2023-03-17T01:46:11.869Z,98350.66
2023-03-17T01:48:42.698Z,98350.69
2023-03-17T01:51:13.771Z,98344.53
2023-03-17T01:53:41.907Z,98341.91
2023-03-17T01:56:08.425Z,98348.06
2023-03-17T01:58:35.461Z,98344.50
2023-03-17T02:01:01.948Z,98343.66
2023-03-17T02:03:29.822Z,98341.00
2023-03-17T02:05:58.987Z,98345.38
2023-03-17T02:08:26.330Z,98344.50
2023-03-17T02:10:54.218Z,98335.72
2023-03-17T02:13:20.870Z,98341.88
2023-03-17T02:15:50.749Z,98341.91
2023-03-17T02:18:20.370Z,98334.00
2023-03-17T02:20:49.291Z,98332.25
2023-03-17T02:23:22.413Z,98325.22
2023-03-17T02:25:50.433Z,98312.03
2023-03-17T02:28:23.405Z,98302.38
2023-03-17T02:30:49.893Z,98302.38
2023-03-17T02:33:16.427Z,98312.94
2023-03-17T02:35:43.201Z,98307.66
2023-03-17T02:38:12.262Z,98310.28
2023-03-17T02:40:38.781Z,98312.91
2023-03-17T02:43:05.690Z,98296.25
2023-03-17T02:45:32.318Z,98306.78
2023-03-17T02:48:00.293Z,98295.38
2023-03-17T02:50:29.337Z,98302.34
2023-03-17T02:52:56.052Z,98288.31
2023-03-17T02:55:22.627Z,98275.16
2023-03-17T02:57:49.097Z,98272.50
2023-03-17T03:00:18.914Z,98267.25
2023-03-17T03:02:45.437Z,98276.03
2023-03-17T03:05:11.947Z,98269.91
2023-03-17T03:07:38.415Z,98268.13
2023-03-17T03:10:05.766Z,98269.00
2023-03-17T03:12:33.265Z,98266.34
2023-03-17T03:15:00.728Z,98277.81
2023-03-17T03:17:27.266Z,98289.22
2023-03-17T03:19:53.793Z,98292.72
2023-03-17T03:22:20.396Z,98304.13
2023-03-17T03:24:46.900Z,98321.72
2023-03-17T03:27:13.364Z,98310.28
2023-03-17T03:29:39.914Z,98312.94
2023-03-17T03:32:07.256Z,98296.19
2023-03-17T03:34:33.848Z,98305.00
2023-03-17T03:37:00.553Z,98297.94
2023-03-17T03:39:27.008Z,98292.66
2023-03-17T03:41:57.306Z,98306.75
2023-03-17T03:44:24.435Z,98303.25
2023-03-17T03:46:54.088Z,98313.81
2023-03-17T03:49:21.032Z,98313.78
2023-03-17T03:51:47.495Z,98316.44
2023-03-17T03:54:14.205Z,98312.03
2023-03-17T03:56:40.789Z,98312.03
2023-03-17T03:59:07.516Z,98315.59
2023-03-17T04:01:34.001Z,98311.19
2023-03-17T04:04:00.472Z,98313.81
2023-03-17T04:06:27.010Z,98300.53
2023-03-17T04:08:53.483Z,98306.69
2023-03-17T04:11:19.976Z,98309.28
2023-03-17T04:13:46.487Z,98305.78
2023-03-17T04:16:13.002Z,98311.00
2023-03-17T04:18:39.745Z,98314.59
2023-03-17T04:21:08.293Z,98309.34
2023-03-17T04:23:34.808Z,98309.28
2023-03-17T04:26:01.484Z,98302.19
2023-03-17T04:28:27.951Z,98310.13
2023-03-17T04:30:54.500Z,98327.75
2023-03-17T04:33:21.406Z,98322.53
2023-03-17T04:35:48.136Z,98315.56
2023-03-17T04:38:14.639Z,98310.28
2023-03-17T04:40:41.563Z,98302.38
2023-03-17T04:43:09.110Z,98313.78
2023-03-17T04:45:36.636Z,98322.56
2023-03-17T04:48:03.558Z,98303.25
2023-03-17T04:50:30.315Z,98301.50
2023-03-17T04:52:57.320Z,98298.00
2023-03-17T04:55:23.764Z,98295.31
2023-03-17T04:57:50.312Z,98286.41
2023-03-17T05:00:18.139Z,98273.25
2023-03-17T05:02:44.702Z,98278.50
2023-03-17T05:05:12.219Z,98272.44
2023-03-17T05:07:38.843Z,98268.97
2023-03-17T05:10:06.575Z,98280.41
2023-03-17T05:12:33.041Z,98285.66
2023-03-17T05:14:59.511Z,98287.31
2023-03-17T05:17:26.361Z,98287.38
2023-03-17T05:19:52.797Z,98281.25
2023-03-17T05:22:19.456Z,98276.81
2023-03-17T05:24:45.973Z,98286.41
2023-03-17T05:27:12.471Z,98292.44
2023-03-17T05:29:39.199Z,98295.06
2023-03-17T05:32:05.762Z,98286.31
2023-03-17T05:34:32.223Z,98287.28
2023-03-17T05:36:58.681Z,98288.16
2023-03-17T05:39:25.176Z,98285.53
2023-03-17T05:41:52.271Z,98275.84
2023-03-17T05:44:19.171Z,98262.63
2023-03-17T05:46:46.006Z,98253.88
2023-03-17T05:49:16.229Z,98277.47
2023-03-17T05:51:42.785Z,98283.63
2023-03-17T05:54:09.283Z,98284.50
2023-03-17T05:56:37.086Z,98283.66
2023-03-17T05:59:04.559Z,98293.19
2023-03-17T06:01:31.407Z,98296.63
2023-03-17T06:03:58.126Z,98282.59
2023-03-17T06:06:24.603Z,98276.41
2023-03-17T06:08:54.372Z,98266.78
2023-03-17T06:11:21.584Z,98256.28
2023-03-17T06:13:48.349Z,98257.19
2023-03-17T06:16:15.152Z,98258.97
2023-03-17T06:18:41.699Z,98272.91
2023-03-17T06:21:08.186Z,98264.06
2023-03-17T06:23:34.737Z,98265.66
2023-03-17T06:26:01.557Z,98269.22
2023-03-17T06:28:28.081Z,98283.16
2023-03-17T06:30:54.640Z,98270.03
2023-03-17T06:33:24.823Z,98275.38
2023-03-17T06:35:51.740Z,98278.00
2023-03-17T06:38:18.302Z,98276.41
2023-03-17T06:40:45.263Z,98277.34
2023-03-17T06:43:12.276Z,98276.53
2023-03-17T06:45:38.912Z,98282.69
2023-03-17T06:48:06.958Z,98271.41
2023-03-17T06:50:33.420Z,98263.56
2023-03-17T06:52:59.942Z,98267.94
2023-03-17T06:55:27.321Z,98260.97
2023-03-17T06:57:54.217Z,98254.88
2023-03-17T07:00:22.561Z,98266.28
2023-03-17T07:02:49.559Z,98280.38
2023-03-17T07:05:16.190Z,98273.38
2023-03-17T07:07:42.664Z,98262.88
2023-03-17T07:10:13.768Z,98261.97
2023-03-17T07:12:40.281Z,98253.91
2023-03-17T07:15:07.259Z,98273.03
2023-03-17T07:17:33.691Z,98269.59
2023-03-17T07:20:00.230Z,98261.53
2023-03-17T07:22:27.120Z,98256.06
2023-03-17T07:24:56.742Z,98254.19
2023-03-17T07:27:25.261Z,98263.00
2023-03-17T07:29:52.238Z,98274.28
2023-03-17T07:32:19.216Z,98268.16
2023-03-17T07:34:45.725Z,98257.47
2023-03-17T07:37:15.488Z,98245.75
2023-03-17T07:39:42.001Z,98255.28
2023-03-17T07:42:12.020Z,98238.69
2023-03-17T07:44:41.534Z,98250.06
2023-03-17T07:47:09.099Z,98250.91
2023-03-17T07:49:41.766Z,98255.25
2023-03-17T07:52:10.361Z,98243.66
2023-03-17T07:54:42.663Z,98238.25
2023-03-17T07:57:09.418Z,98234.69
2023-03-17T07:59:36.037Z,98233.88
2023-03-17T08:02:02.665Z,98228.41
2023-03-17T08:04:29.262Z,98227.38
2023-03-17T08:06:57.353Z,98233.16
2023-03-17T08:09:24.052Z,98227.84
2023-03-17T08:11:50.614Z,98230.06
2023-03-17T08:14:17.215Z,98234.28
2023-03-17T08:16:43.739Z,98243.75
2023-03-17T08:19:11.054Z,98227.69
2023-03-17T08:21:37.652Z,98234.53
2023-03-17T08:24:05.231Z,98227.31
2023-03-17T08:26:32.348Z,98231.56
2023-03-17T08:28:58.947Z,98234.13
2023-03-17T08:31:25.821Z,98225.25
2023-03-17T08:33:54.468Z,98224.78
2023-03-17T08:36:21.683Z,98219.59
2023-03-17T08:38:48.897Z,98223.28
2023-03-17T08:41:19.477Z,98212.00
2023-03-17T08:43:46.902Z,98214.69
2023-03-17T08:46:17.000Z,98227.94
2023-03-17T08:48:45.131Z,98210.97
2023-03-17T08:51:11.611Z,98214.66
2023-03-17T08:53:38.842Z,98218.13
2023-03-17T08:56:07.053Z,98226.00
2023-03-17T08:58:37.629Z,98231.94
2023-03-17T09:01:04.889Z,98223.88
2023-03-17T09:03:32.659Z,98233.63
2023-03-17T09:05:59.922Z,98235.97
2023-03-17T09:08:27.730Z,98232.63
2023-03-17T09:10:54.277Z,98233.09
2023-03-17T09:13:21.940Z,98229.25
2023-03-17T09:15:51.314Z,98228.13
2023-03-17T09:18:21.887Z,98216.06
2023-03-17T09:20:48.876Z,98210.41
2023-03-17T09:23:15.935Z,98192.63
2023-03-17T09:25:43.513Z,98201.44
2023-03-17T09:28:12.376Z,98205.72
2023-03-17T09:30:45.276Z,98190.50
2023-03-17T09:33:13.596Z,98194.13
2023-03-17T09:35:41.039Z,98188.25
2023-03-17T09:38:08.893Z,98190.94
2023-03-17T09:41:20.221Z,98183.19
2023-03-17T09:43:56.669Z,98175.28
2023-03-17T09:46:48.531Z,98174.25
2023-03-17T09:49:20.499Z,98184.75
2023-03-17T09:51:47.518Z,98192.75
2023-03-17T09:54:33.744Z,98211.91
2023-03-17T09:57:20.960Z,98218.28
2023-03-17T09:59:53.539Z,98223.16
2023-03-17T10:02:32.652Z,98237.41
2023-03-17T10:05:17.108Z,98229.50
2023-03-17T10:08:10.874Z,98227.81
2023-03-17T10:11:13.438Z,98228.75
2023-03-17T10:14:00.637Z,98229.09
2023-03-17T10:16:54.713Z,98219.22
2023-03-17T10:19:31.493Z,98229.72
2023-03-17T10:22:27.844Z,98224.38
2023-03-17T10:25:01.764Z,98224.53
2023-03-17T10:27:34.632Z,98226.03
2023-03-17T10:30:05.697Z,98230.97
2023-03-17T10:32:37.906Z,98226.50
2023-03-17T10:35:05.183Z,98225.19
2023-03-17T10:37:36.546Z,98223.28
2023-03-17T10:40:11.401Z,98221.69
2023-03-17T10:42:51.834Z,98226.16
2023-03-17T10:45:33.725Z,98226.25
2023-03-17T10:48:04.256Z,98212.06
2023-03-17T10:50:33.577Z,98214.53
2023-03-17T10:53:08.931Z,98213.44
2023-03-17T10:55:48.850Z,98204.47
2023-03-17T10:58:18.040Z,98203.88
2023-03-17T11:01:05.716Z,98201.97
2023-03-17T11:03:38.744Z,98193.78
2023-03-17T11:06:17.232Z,98202.06
2023-03-17T11:08:56.288Z,98201.72
2023-03-17T11:11:26.892Z,98193.25
2023-03-17T11:14:13.866Z,98188.78
2023-03-17T11:16:55.278Z,98187.81
2023-03-17T11:19:54.938Z,98179.50
2023-03-17T11:22:46.469Z,98191.41
2023-03-17T11:25:19.457Z,98195.00
2023-03-17T11:27:55.743Z,98202.81
2023-03-17T11:30:42.167Z,98200.56
2023-03-17T11:33:28.032Z,98210.69
2023-03-17T11:36:01.681Z,98216.22
2023-03-17T11:38:31.386Z,98221.78
2023-03-17T11:41:14.195Z,98215.28
2023-03-17T11:44:06.305Z,98213.03
2023-03-17T11:46:59.346Z,98225.03
2023-03-17T11:49:35.967Z,98195.94
2023-03-17T11:52:03.108Z,98209.69
2023-03-17T11:54:58.905Z,98203.44
2023-03-17T11:57:44.611Z,98205.97
2023-03-17T12:00:27.708Z,98209.00
2023-03-17T12:03:07.196Z,98210.06
2023-03-17T12:05:35.622Z,98206.13
2023-03-17T12:08:11.948Z,98197.78
2023-03-17T12:10:50.577Z,98202.16
2023-03-17T12:13:36.295Z,98191.50
2023-03-17T12:16:10.837Z,98181.75
2023-03-17T12:18:49.376Z,98197.44
2023-03-17T12:21:25.649Z,98196.72
2023-03-17T12:24:09.918Z,98203.22
2023-03-17T12:27:01.834Z,98191.31
2023-03-17T12:29:43.539Z,98193.66
2023-03-17T12:32:24.507Z,98189.31
2023-03-17T12:34:57.380Z,98190.81
2023-03-17T12:37:28.170Z,98188.00
2023-03-17T12:40:14.436Z,98186.38
2023-03-17T12:43:18.481Z,98197.44
2023-03-17T12:45:54.406Z,98190.53
2023-03-17T12:48:39.367Z,98192.22
2023-03-17T12:51:09.031Z,98195.81
2023-03-17T12:53:42.017Z,98184.13
2023-03-17T12:56:30.003Z,98182.50
2023-03-17T12:59:04.898Z,98187.06
2023-03-17T13:01:43.209Z,98188.91
2023-03-17T13:04:15.526Z,98188.91
2023-03-17T13:06:58.859Z,98182.00
2023-03-17T13:09:31.626Z,98176.84
2023-03-17T13:12:00.322Z,98181.16
2023-03-17T13:14:41.035Z,98173.84
2023-03-17T13:17:17.516Z,98175.56
2023-03-17T13:20:04.497Z,98176.72
2023-03-17T13:22:38.775Z,98175.75
2023-03-17T13:25:35.582Z,98177.75
2023-03-17T13:28:24.221Z,98160.91
2023-03-17T13:31:16.311Z,98181.34
2023-03-17T13:33:53.192Z,98171.56
2023-03-17T13:36:28.691Z,98176.09
2023-03-17T13:39:22.360Z,98170.69
2023-03-17T13:42:17.977Z,98169.91
2023-03-17T13:45:29.429Z,98168.16
2023-03-17T13:48:36.302Z,98162.94
2023-03-17T13:51:13.920Z,98157.56
2023-03-17T13:53:45.783Z,98150.44
2023-03-17T13:56:45.291Z,98149.56
2023-03-17T13:59:15.036Z,98156.63
2023-03-17T14:01:52.125Z,98147.72
2023-03-17T14:04:22.332Z,98150.34
2023-03-17T14:06:51.976Z,98156.75
2023-03-17T14:09:32.756Z,98139.03
2023-03-17T14:12:02.584Z,98148.03
2023-03-17T14:14:49.845Z,98138.34
2023-03-17T14:17:25.233Z,98136.56
2023-03-17T14:20:08.382Z,98137.44
2023-03-17T14:22:52.702Z,98131.25
2023-03-17T14:25:24.981Z,98131.41
2023-03-17T14:27:54.248Z,98131.59
2023-03-17T14:30:26.947Z,98133.34
2023-03-17T14:33:00.958Z,98118.25
2023-03-17T14:35:39.041Z,98120.06
2023-03-17T14:38:17.402Z,98115.63
2023-03-17T14:40:43.894Z,98113.00
2023-03-17T14:43:11.557Z,98114.91
2023-03-17T14:45:47.965Z,98111.28
2023-03-17T14:48:18.314Z,98098.06
2023-03-17T14:50:52.091Z,98106.09
2023-03-17T14:53:20.416Z,98110.66
2023-03-17T14:55:47.343Z,98106.25
2023-03-17T14:58:42.751Z,98093.81
2023-03-17T15:01:39.763Z,98095.56
2023-03-17T15:04:28.627Z,98085.84
2023-03-17T15:06:57.192Z,98084.16
2023-03-17T15:09:27.935Z,98073.53
2023-03-17T15:11:59.373Z,98071.78
2023-03-17T15:14:35.384Z,98071.06
2023-03-17T15:17:04.105Z,98076.22
2023-03-17T15:19:44.116Z,98082.53
2023-03-17T15:22:36.526Z,98080.00
2023-03-17T15:25:37.156Z,98085.34
2023-03-17T15:28:14.761Z,98082.78
2023-03-17T15:30:47.464Z,98086.19
2023-03-17T15:33:30.413Z,98079.03
2023-03-17T15:36:00.008Z,98080.00
2023-03-17T15:38:26.776Z,98076.50
2023-03-17T15:40:53.991Z,98079.34
2023-03-17T15:43:23.834Z,98084.72
2023-03-17T15:46:16.598Z,98076.53
2023-03-17T15:48:43.080Z,98077.34
2023-03-17T15:51:10.727Z,98081.13
2023-03-17T15:53:37.237Z,98083.00
2023-03-17T15:56:03.700Z,98079.63
2023-03-17T15:58:30.359Z,98079.78
2023-03-17T16:00:59.624Z,98070.06
2023-03-17T16:03:32.334Z,98077.13
2023-03-17T16:05:59.783Z,98074.59
2023-03-17T16:08:26.453Z,98068.56
2023-03-17T16:10:53.073Z,98065.72
2023-03-17T16:13:19.810Z,98067.16
2023-03-17T16:16:00.848Z,98062.28
2023-03-17T16:18:37.626Z,98073.16
2023-03-17T16:21:04.722Z,98072.97
2023-03-17T16:23:36.517Z,98070.94
2023-03-17T16:26:14.411Z,98067.50
2023-03-17T16:28:44.538Z,98065.84
2023-03-17T16:31:19.516Z,98067.59
2023-03-17T16:33:46.509Z,98062.44
2023-03-17T16:36:18.175Z,98063.44
2023-03-17T16:38:45.549Z,98055.47
2023-03-17T16:41:21.350Z,98056.28
2023-03-17T16:43:55.044Z,98064.16
2023-03-17T16:46:22.636Z,98053.53
2023-03-17T16:48:50.506Z,98054.72
2023-03-17T16:51:17.686Z,98039.84
2023-03-17T16:53:44.845Z,98056.63
2023-03-17T16:56:20.459Z,98055.69
2023-03-17T16:58:48.090Z,98053.91
2023-03-17T17:01:23.662Z,98065.69
2023-03-17T17:03:50.726Z,98059.69
2023-03-17T17:06:19.251Z,98065.22
2023-03-17T17:08:47.210Z,98067.16
2023-03-17T17:11:15.997Z,98062.56
2023-03-17T17:13:45.049Z,98067.06
2023-03-17T17:16:33.618Z,98058.31
2023-03-17T17:19:01.231Z,98054.78
2023-03-17T17:21:30.939Z,98053.91
2023-03-17T17:23:58.623Z,98060.16
2023-03-17T17:26:25.586Z,98049.72
2023-03-17T17:28:52.251Z,98044.56
2023-03-17T17:31:18.996Z,98049.00
2023-03-17T17:33:48.674Z,98027.59
2023-03-17T17:36:16.960Z,98031.91
2023-03-17T17:38:44.309Z,98041.63
2023-03-17T17:41:15.149Z,98054.84
2023-03-17T17:43:41.689Z,98061.78
2023-03-17T17:46:20.151Z,98060.09
2023-03-17T17:48:47.596Z,98068.13
2023-03-17T17:51:14.521Z,98048.53
2023-03-17T17:53:41.035Z,98057.50
2023-03-17T17:56:08.314Z,98060.22
2023-03-17T17:58:34.781Z,98057.53
2023-03-17T18:01:02.276Z,98053.00
2023-03-17T18:03:30.321Z,98056.56
2023-03-17T18:05:59.112Z,98053.19
2023-03-17T18:08:25.922Z,98071.72
2023-03-17T18:10:55.758Z,98066.34
2023-03-17T18:13:22.264Z,98060.97
2023-03-17T18:15:48.890Z,98067.28
2023-03-17T18:18:15.401Z,98069.00
2023-03-17T18:20:41.980Z,98073.47
2023-03-17T18:23:08.544Z,98084.19
2023-03-17T18:25:35.738Z,98093.16
2023-03-17T18:28:04.952Z,98108.50
2023-03-17T18:30:34.811Z,98107.03
2023-03-17T18:33:09.272Z,98109.34
2023-03-17T18:35:36.199Z,98102.06
2023-03-17T18:38:03.020Z,98104.09
2023-03-17T18:40:29.739Z,98100.69
2023-03-17T18:42:56.340Z,98075.00
2023-03-17T18:45:23.134Z,98081.19
2023-03-17T18:47:53.211Z,98076.78
2023-03-17T18:50:22.254Z,98079.41
2023-03-17T18:52:49.213Z,98077.69
2023-03-17T18:55:15.740Z,98070.59
2023-03-17T18:57:44.619Z,98071.50
2023-03-17T19:00:13.263Z,98079.53
2023-03-17T19:02:42.564Z,98072.38
2023-03-17T19:05:09.491Z,98076.69
2023-03-17T19:07:40.351Z,98074.94
2023-03-17T19:10:10.931Z,98074.13
2023-03-17T19:12:38.140Z,98073.13
2023-03-17T19:15:06.613Z,98071.25
2023-03-17T19:17:33.711Z,98074.78
2023-03-17T19:20:00.264Z,98076.56
2023-03-17T19:22:27.048Z,98078.53
2023-03-17T19:24:53.620Z,98080.06
2023-03-17T19:27:20.116Z,98086.72
2023-03-17T19:29:46.621Z,98074.56
2023-03-17T19:32:13.285Z,98079.19
2023-03-17T19:34:39.872Z,98068.66
2023-03-17T19:37:06.451Z,98072.44
2023-03-17T19:39:33.877Z,98066.47
2023-03-17T19:42:00.962Z,98059.28
2023-03-17T19:44:27.530Z,98057.53
2023-03-17T19:46:54.043Z,98060.34
2023-03-17T19:49:21.316Z,98057.03
2023-03-17T19:51:49.028Z,98061.63
2023-03-17T19:54:15.762Z,98048.88
2023-03-17T19:56:42.549Z,98053.28
2023-03-17T19:59:09.363Z,98050.56
2023-03-17T20:01:37.848Z,98050.56
2023-03-17T20:04:06.957Z,98049.63
2023-03-17T20:06:34.543Z,98049.44
2023-03-17T20:09:03.867Z,98045.00
2023-03-17T20:11:33.804Z,98041.59
2023-03-17T20:14:02.120Z,98040.69
2023-03-17T20:16:31.811Z,98043.25
2023-03-17T20:18:58.346Z,98038.69
2023-03-17T20:21:24.857Z,98041.34
2023-03-17T20:23:51.538Z,98044.78
2023-03-17T20:26:19.031Z,98042.06
2023-03-17T20:28:46.403Z,98032.38
2023-03-17T20:31:13.352Z,98048.31
2023-03-17T20:33:40.028Z,98044.81
2023-03-17T20:36:06.868Z,98050.88
2023-03-17T20:38:36.857Z,98047.38
2023-03-17T20:41:14.958Z,98044.75
2023-03-17T20:43:41.803Z,98034.94
2023-03-17T20:46:13.714Z,98034.06
2023-03-17T20:48:40.149Z,98030.56
2023-03-17T20:51:09.355Z,98035.72
2023-03-17T20:53:36.228Z,98037.31
2023-03-17T20:56:02.998Z,98031.84
2023-03-17T20:58:30.448Z,98030.84
2023-03-17T21:00:58.443Z,98024.63
2023-03-17T21:03:25.270Z,98035.34
2023-03-17T21:05:53.460Z,98030.84
2023-03-17T21:08:19.993Z,98026.59
2023-03-17T21:10:46.652Z,98031.91
2023-03-17T21:13:13.357Z,98032.88
2023-03-17T21:15:41.091Z,98036.38
2023-03-17T21:18:07.683Z,98014.31
2023-03-17T21:20:37.583Z,98023.03
2023-03-17T21:23:07.657Z,98012.59
2023-03-17T21:25:41.773Z,98018.94
2023-03-17T21:28:08.238Z,98019.91
2023-03-17T21:30:36.984Z,98005.66
2023-03-17T21:33:05.925Z,98015.38
2023-03-17T21:35:34.727Z,98018.03
2023-03-17T21:38:01.941Z,98000.13
2023-03-17T21:40:32.757Z,97997.41
2023-03-17T21:43:06.722Z,98001.69
2023-03-17T21:45:33.379Z,98005.34
2023-03-17T21:48:06.575Z,98008.84
2023-03-17T21:50:36.770Z,97995.50
2023-03-17T21:53:04.545Z,98003.53
2023-03-17T21:55:31.306Z,98001.53
2023-03-17T21:57:58.990Z,97994.41
2023-03-17T22:00:35.940Z,97987.25
2023-03-17T22:03:09.372Z,97994.47
2023-03-17T22:05:36.095Z,97996.22
2023-03-17T22:08:05.555Z,97996.13
2023-03-17T22:10:32.623Z,98001.31
2023-03-17T22:12:59.224Z,98002.09
2023-03-17T22:15:31.077Z,98014.59
2023-03-17T22:17:57.652Z,98011.94
2023-03-17T22:20:24.308Z,98012.94
2023-03-17T22:22:51.365Z,98019.06
2023-03-17T22:25:23.307Z,98008.59
2023-03-17T22:27:55.965Z,98010.44
2023-03-17T22:30:22.973Z,98011.31
2023-03-17T22:32:53.049Z,98014.81
2023-03-17T22:35:20.931Z,98009.47
2023-03-17T22:37:47.400Z,98022.72
2023-03-17T22:40:14.804Z,98014.59
2023-03-17T22:42:41.496Z,98017.25
2023-03-17T22:45:08.523Z,98003.09
2023-03-17T22:47:35.023Z,98013.72
2023-03-17T22:50:01.518Z,98019.97
2023-03-17T22:52:28.084Z,98011.25
2023-03-17T22:54:54.591Z,98023.78
2023-03-17T22:57:21.194Z,98029.00
2023-03-17T22:59:47.713Z,98010.44
2023-03-17T23:02:16.228Z,98021.06
2023-03-17T23:04:46.962Z,98019.22
2023-03-17T23:07:14.927Z,98005.06
2023-03-17T23:09:45.201Z,98012.25
2023-03-17T23:12:12.566Z,98021.13
2023-03-17T23:14:40.046Z,98024.72
2023-03-17T23:17:09.454Z,98029.31
2023-03-17T23:19:36.244Z,98024.78
2023-03-17T23:22:02.964Z,98028.44
2023-03-17T23:24:29.436Z,98035.59
2023-03-17T23:26:58.836Z,98039.16
2023-03-17T23:29:25.308Z,98048.00
2023-03-17T23:31:52.056Z,98045.34
2023-03-17T23:34:19.123Z,98049.00
2023-03-17T23:36:50.565Z,98057.75
2023-03-17T23:39:17.069Z,98051.44
2023-03-17T23:41:44.899Z,98050.53
2023-03-17T23:44:11.687Z,98057.75
2023-03-17T23:46:41.704Z,98063.06
2023-03-17T23:49:08.311Z,98069.25
2023-03-17T23:51:35.499Z,98064.81
2023-03-17T23:54:02.018Z,98072.03
2023-03-17T23:56:28.487Z,98090.94
2023-03-17T23:58:55.895Z,98087.44
